createdAt,value
2023-01-18T00:00:10.217Z,73.45
2023-01-18T00:02:37.312Z,73.33
2023-01-18T00:05:03.995Z,72.89
2023-01-18T00:07:31.376Z,72.65
2023-01-18T00:09:57.718Z,72.50
2023-01-18T00:12:24.140Z,72.57
2023-01-18T00:14:50.462Z,72.46
2023-01-18T00:17:16.821Z,72.50
2023-01-18T00:19:43.141Z,72.36
2023-01-18T00:22:09.489Z,71.93
2023-01-18T00:24:35.822Z,71.94
2023-01-18T00:27:02.245Z,71.95
2023-01-18T00:29:30.761Z,72.59
2023-01-18T00:31:57.132Z,72.05
2023-01-18T00:34:23.611Z,72.46
2023-01-18T00:36:49.960Z,72.16
2023-01-18T00:39:16.510Z,72.33
2023-01-18T00:42:02.857Z,72.81
2023-01-18T00:44:29.333Z,72.04
2023-01-18T00:46:56.056Z,72.67
2023-01-18T00:49:23.600Z,72.74
2023-01-18T00:51:52.038Z,71.66
2023-01-18T00:54:18.968Z,73.11
2023-01-18T00:56:50.455Z,73.11
2023-01-18T00:59:16.783Z,73.41
2023-01-18T01:01:44.883Z,73.64
2023-01-18T01:04:30.011Z,74.49
2023-01-18T01:06:56.489Z,74.49
2023-01-18T01:09:29.125Z,73.56
2023-01-18T01:12:16.206Z,72.81
2023-01-18T01:15:04.375Z,72.78
2023-01-18T01:17:51.230Z,71.88
2023-01-18T01:20:36.381Z,72.54
2023-01-18T01:23:28.201Z,73.27
2023-01-18T01:26:10.845Z,73.40
2023-01-18T01:28:39.752Z,72.96
2023-01-18T01:31:08.819Z,72.95
2023-01-18T01:33:37.323Z,72.58
2023-01-18T01:36:13.332Z,73.02
2023-01-18T01:38:43.570Z,72.32
2023-01-18T01:41:31.195Z,72.30
2023-01-18T01:44:24.467Z,72.42
2023-01-18T01:46:53.908Z,71.93
2023-01-18T01:49:44.070Z,72.33
2023-01-18T01:52:13.537Z,72.24
2023-01-18T01:54:49.443Z,71.71
2023-01-18T01:57:23.106Z,71.38
2023-01-18T01:59:59.172Z,72.00
2023-01-18T02:02:25.575Z,72.70
2023-01-18T02:04:55.080Z,73.11
2023-01-18T02:07:22.551Z,72.42
2023-01-18T02:09:50.365Z,72.79
2023-01-18T02:12:17.022Z,71.40
2023-01-18T02:14:43.512Z,73.38
2023-01-18T02:17:32.587Z,72.59
2023-01-18T02:20:31.846Z,73.19
2023-01-18T02:23:03.928Z,73.43
2023-01-18T02:26:07.963Z,73.29
2023-01-18T02:28:37.496Z,72.79
2023-01-18T02:31:17.988Z,71.88
2023-01-18T02:34:35.999Z,73.04
2023-01-18T02:37:16.937Z,72.56
2023-01-18T02:39:58.545Z,72.88
2023-01-18T02:42:49.246Z,72.84
2023-01-18T02:45:39.655Z,72.43
2023-01-18T02:48:07.629Z,72.10
2023-01-18T02:50:34.281Z,71.69
2023-01-18T02:53:00.783Z,72.54
2023-01-18T02:55:50.446Z,72.59
2023-01-18T02:58:21.705Z,72.90
2023-01-18T03:00:55.053Z,73.14
2023-01-18T03:03:22.875Z,73.85
2023-01-18T03:05:51.834Z,73.13
2023-01-18T03:08:36.503Z,73.03
2023-01-18T03:11:07.647Z,72.92
2023-01-18T03:14:01.925Z,72.98
2023-01-18T03:16:40.361Z,72.39
2023-01-18T03:19:39.251Z,72.11
2023-01-18T03:22:06.312Z,73.06
2023-01-18T03:24:41.005Z,73.07
2023-01-18T03:27:27.142Z,73.12
2023-01-18T03:30:12.939Z,73.62
2023-01-18T03:32:59.079Z,73.41
2023-01-18T03:35:28.593Z,73.48
2023-01-18T03:37:58.379Z,73.19
2023-01-18T03:40:30.054Z,72.85
2023-01-18T03:43:14.985Z,72.65
2023-01-18T03:45:46.483Z,72.47
2023-01-18T03:48:13.554Z,72.69
2023-01-18T03:51:00.310Z,72.37
2023-01-18T03:53:34.847Z,72.51
2023-01-18T03:56:16.216Z,72.67
2023-01-18T03:58:45.112Z,73.05
2023-01-18T04:01:11.876Z,73.70
2023-01-18T04:03:38.317Z,73.61
2023-01-18T04:06:06.269Z,73.51
2023-01-18T04:08:32.618Z,72.66
2023-01-18T04:10:58.984Z,72.65
2023-01-18T04:13:25.312Z,72.77
2023-01-18T04:15:51.728Z,73.17
2023-01-18T04:18:18.244Z,73.21
2023-01-18T04:20:44.553Z,72.94
2023-01-18T04:23:10.994Z,73.65
2023-01-18T04:25:40.666Z,73.73
2023-01-18T04:28:07.008Z,74.01
2023-01-18T04:30:33.361Z,74.70
2023-01-18T04:33:00.121Z,74.88
2023-01-18T04:35:26.881Z,75.26
2023-01-18T04:37:53.263Z,75.10
2023-01-18T04:40:19.637Z,74.60
2023-01-18T04:42:52.155Z,74.80
2023-01-18T04:45:19.576Z,74.98
2023-01-18T04:47:46.395Z,74.65
2023-01-18T04:50:12.876Z,74.47
2023-01-18T04:52:39.200Z,74.30
2023-01-18T04:55:06.009Z,74.42
2023-01-18T04:57:32.393Z,74.52
2023-01-18T05:00:00.122Z,73.99
2023-01-18T05:02:26.707Z,73.95
2023-01-18T05:04:53.109Z,74.38
2023-01-18T05:07:19.483Z,73.96
2023-01-18T05:09:46.764Z,74.14
2023-01-18T05:12:13.077Z,73.82
2023-01-18T05:14:39.389Z,73.75
2023-01-18T05:17:07.200Z,73.92
2023-01-18T05:19:33.916Z,73.27
2023-01-18T05:22:00.287Z,73.40
2023-01-18T05:24:29.763Z,73.86
2023-01-18T05:26:56.366Z,73.53
2023-01-18T05:29:22.685Z,73.63
2023-01-18T05:31:49.135Z,73.73
2023-01-18T05:34:16.013Z,73.83
2023-01-18T05:36:42.715Z,74.04
2023-01-18T05:39:09.515Z,73.99
2023-01-18T05:41:35.848Z,74.66
2023-01-18T05:44:02.925Z,74.45
2023-01-18T05:46:29.274Z,74.00
2023-01-18T05:48:57.452Z,74.32
2023-01-18T05:51:24.266Z,74.54
2023-01-18T05:53:50.581Z,73.92
2023-01-18T05:56:17.475Z,74.83
2023-01-18T05:58:43.813Z,74.59
2023-01-18T06:01:10.286Z,74.62
2023-01-18T06:03:37.034Z,74.78
2023-01-18T06:06:03.536Z,75.69
2023-01-18T06:08:30.049Z,75.82
2023-01-18T06:10:59.125Z,75.54
2023-01-18T06:13:30.136Z,75.65
2023-01-18T06:15:58.154Z,75.83
2023-01-18T06:18:25.751Z,76.11
2023-01-18T06:20:59.115Z,76.01
2023-01-18T06:23:27.871Z,76.40
2023-01-18T06:25:54.259Z,76.14
2023-01-18T06:28:22.521Z,75.83
2023-01-18T06:30:53.038Z,75.87
2023-01-18T06:33:19.523Z,75.40
2023-01-18T06:35:45.958Z,75.74
2023-01-18T06:38:13.283Z,75.33
2023-01-18T06:40:39.833Z,75.88
2023-01-18T06:43:08.499Z,75.55
2023-01-18T06:45:35.437Z,75.50
2023-01-18T06:48:02.294Z,76.08
2023-01-18T06:50:28.890Z,75.78
2023-01-18T06:52:56.142Z,75.57
2023-01-18T06:55:23.061Z,75.42
2023-01-18T06:57:51.855Z,75.83
2023-01-18T07:00:18.732Z,75.59
2023-01-18T07:02:45.306Z,75.65
2023-01-18T07:05:11.642Z,76.06
2023-01-18T07:07:37.992Z,75.92
2023-01-18T07:10:04.694Z,76.04
2023-01-18T07:12:31.166Z,76.02
2023-01-18T07:14:57.833Z,76.08
2023-01-18T07:17:24.389Z,76.30
2023-01-18T07:19:50.947Z,76.50
2023-01-18T07:22:17.296Z,75.81
2023-01-18T07:24:43.739Z,76.26
2023-01-18T07:27:10.397Z,75.96
2023-01-18T07:29:36.768Z,76.05
2023-01-18T07:32:03.308Z,77.24
2023-01-18T07:34:29.769Z,76.77
2023-01-18T07:36:56.255Z,76.52
2023-01-18T07:39:22.606Z,77.09
2023-01-18T07:41:49.059Z,76.74
2023-01-18T07:44:15.720Z,76.67
2023-01-18T07:46:43.254Z,76.15
2023-01-18T07:49:09.819Z,76.37
2023-01-18T07:51:36.473Z,75.88
2023-01-18T07:54:02.957Z,75.97
2023-01-18T07:56:29.295Z,75.83
2023-01-18T07:58:55.817Z,76.21
2023-01-18T08:01:23.027Z,76.12
2023-01-18T08:03:50.654Z,75.81
2023-01-18T08:06:24.872Z,75.37
2023-01-18T08:08:51.869Z,75.75
2023-01-18T08:11:19.471Z,76.03
2023-01-18T08:13:46.883Z,75.63
2023-01-18T08:16:13.291Z,75.85
2023-01-18T08:18:40.315Z,75.49
2023-01-18T08:21:10.919Z,75.47
2023-01-18T08:23:37.889Z,75.61
2023-01-18T08:26:04.771Z,75.70
2023-01-18T08:28:31.374Z,75.59
2023-01-18T08:31:26.896Z,75.61
2023-01-18T08:33:53.949Z,75.67
2023-01-18T08:36:22.571Z,75.25
2023-01-18T08:38:55.329Z,75.69
2023-01-18T08:41:23.718Z,75.66
2023-01-18T08:43:53.703Z,75.78
2023-01-18T08:46:20.941Z,76.38
2023-01-18T08:48:52.292Z,75.92
2023-01-18T08:51:19.181Z,75.87
2023-01-18T08:53:46.619Z,75.96
2023-01-18T08:56:13.430Z,75.08
2023-01-18T08:58:39.898Z,75.55
2023-01-18T09:01:08.116Z,75.21
2023-01-18T09:03:35.369Z,74.94
2023-01-18T09:06:03.880Z,74.48
2023-01-18T09:08:31.518Z,74.35
2023-01-18T09:11:07.146Z,74.62
2023-01-18T09:13:33.979Z,74.33
2023-01-18T09:16:07.589Z,73.98
2023-01-18T09:18:34.025Z,73.89
2023-01-18T09:21:06.079Z,73.95
2023-01-18T09:23:32.505Z,73.81
2023-01-18T09:26:20.947Z,73.85
2023-01-18T09:28:49.667Z,73.85
2023-01-18T09:31:16.178Z,74.06
2023-01-18T09:33:52.423Z,74.27
2023-01-18T09:36:21.379Z,74.18
2023-01-18T09:38:47.793Z,73.99
2023-01-18T09:41:33.050Z,73.64
2023-01-18T09:44:09.268Z,74.08
2023-01-18T09:46:39.745Z,74.10
2023-01-18T09:49:13.834Z,73.88
2023-01-18T09:51:56.933Z,73.71
2023-01-18T09:54:23.250Z,73.95
2023-01-18T09:57:05.459Z,73.50
2023-01-18T09:59:41.462Z,73.01
2023-01-18T10:02:23.891Z,73.11
2023-01-18T10:04:56.446Z,73.13
2023-01-18T10:07:27.582Z,74.13
2023-01-18T10:09:56.442Z,73.01
2023-01-18T10:12:36.308Z,73.11
2023-01-18T10:15:26.665Z,73.23
2023-01-18T10:17:56.546Z,73.04
2023-01-18T10:20:45.537Z,72.90
2023-01-18T10:23:31.512Z,73.45
2023-01-18T10:26:04.094Z,73.44
2023-01-18T10:28:46.693Z,73.75
2023-01-18T10:31:37.873Z,73.57
2023-01-18T10:34:18.299Z,73.06
2023-01-18T10:36:49.887Z,72.77
2023-01-18T10:39:39.772Z,73.02
2023-01-18T10:42:17.701Z,72.56
2023-01-18T10:44:44.918Z,71.00
2023-01-18T10:47:12.003Z,70.54
2023-01-18T10:49:41.867Z,69.92
2023-01-18T10:52:27.933Z,69.58
2023-01-18T10:55:01.215Z,69.66
2023-01-18T10:57:32.130Z,68.89
2023-01-18T10:59:59.570Z,68.50
2023-01-18T11:02:34.685Z,67.88
2023-01-18T11:05:16.178Z,66.14
2023-01-18T11:07:42.647Z,66.35
2023-01-18T11:10:24.878Z,65.85
2023-01-18T11:12:53.013Z,64.76
2023-01-18T11:15:19.304Z,65.60
2023-01-18T11:18:02.794Z,64.88
2023-01-18T11:20:53.023Z,64.20
2023-01-18T11:23:31.633Z,63.58
2023-01-18T11:26:01.907Z,62.95
2023-01-18T11:28:28.242Z,62.83
2023-01-18T11:30:54.483Z,62.36
2023-01-18T11:33:23.595Z,61.93
2023-01-18T11:35:56.170Z,60.62
2023-01-18T11:38:28.271Z,60.86
2023-01-18T11:41:23.359Z,59.88
2023-01-18T11:44:17.179Z,59.69
2023-01-18T11:46:47.572Z,58.90
2023-01-18T11:49:13.903Z,58.50
2023-01-18T11:52:10.454Z,54.80
2023-01-18T11:54:46.521Z,55.76
2023-01-18T11:57:14.266Z,58.97
2023-01-18T11:59:43.494Z,60.24
2023-01-18T12:02:35.137Z,62.65
2023-01-18T12:05:28.068Z,63.57
2023-01-18T12:08:07.984Z,63.55
2023-01-18T12:10:49.332Z,62.68
2023-01-18T12:13:35.075Z,63.86
2023-01-18T12:16:14.031Z,64.15
2023-01-18T12:18:55.184Z,64.73
2023-01-18T12:21:35.912Z,65.08
2023-01-18T12:24:34.012Z,64.03
2023-01-18T12:27:09.882Z,64.67
2023-01-18T12:29:51.529Z,64.72
2023-01-18T12:32:45.907Z,64.13
2023-01-18T12:35:25.205Z,64.18
2023-01-18T12:38:13.568Z,64.21
2023-01-18T12:40:50.461Z,65.11
2023-01-18T12:43:32.709Z,64.94
2023-01-18T12:46:07.574Z,65.23
2023-01-18T12:48:54.521Z,64.73
2023-01-18T12:51:24.404Z,65.11
2023-01-18T12:53:58.574Z,65.18
2023-01-18T12:56:32.964Z,65.13
2023-01-18T12:59:18.097Z,65.73
2023-01-18T13:01:51.690Z,65.02
2023-01-18T13:04:24.380Z,65.39
2023-01-18T13:06:56.674Z,65.53
2023-01-18T13:09:28.407Z,65.50
2023-01-18T13:11:58.304Z,64.43
2023-01-18T13:14:40.950Z,64.56
2023-01-18T13:17:46.268Z,64.76
2023-01-18T13:20:19.593Z,65.48
2023-01-18T13:23:23.709Z,64.63
2023-01-18T13:26:11.607Z,63.90
2023-01-18T13:28:38.493Z,64.60
2023-01-18T13:31:06.188Z,63.99
2023-01-18T13:33:36.360Z,64.26
2023-01-18T13:36:09.608Z,64.33
2023-01-18T13:38:42.050Z,63.72
2023-01-18T13:41:13.153Z,63.92
2023-01-18T13:43:46.119Z,64.72
2023-01-18T13:46:15.772Z,65.14
2023-01-18T13:48:50.307Z,64.07
2023-01-18T13:51:40.982Z,64.98
2023-01-18T13:54:10.060Z,63.97
2023-01-18T13:56:38.132Z,63.40
2023-01-18T13:59:26.196Z,63.32
2023-01-18T14:01:52.641Z,63.55
2023-01-18T14:04:30.134Z,63.18
2023-01-18T14:07:06.096Z,63.69
2023-01-18T14:09:45.256Z,64.27
2023-01-18T14:12:12.912Z,63.55
2023-01-18T14:14:57.396Z,63.42
2023-01-18T14:17:25.310Z,62.48
2023-01-18T14:20:13.518Z,62.70
2023-01-18T14:23:10.999Z,62.29
2023-01-18T14:25:55.195Z,62.34
2023-01-18T14:28:36.548Z,62.20
2023-01-18T14:31:04.665Z,62.77
2023-01-18T14:33:41.177Z,61.76
2023-01-18T14:36:18.730Z,61.67
2023-01-18T14:38:45.125Z,62.63
2023-01-18T14:41:17.055Z,63.35
2023-01-18T14:43:46.413Z,61.91
2023-01-18T14:46:22.733Z,61.72
2023-01-18T14:48:54.640Z,61.38
2023-01-18T14:51:24.078Z,61.14
2023-01-18T14:53:57.964Z,61.52
2023-01-18T14:56:26.465Z,61.99
2023-01-18T14:59:16.092Z,62.04
2023-01-18T15:01:50.192Z,61.23
2023-01-18T15:04:23.830Z,61.78
2023-01-18T15:07:07.651Z,61.38
2023-01-18T15:09:36.970Z,62.43
2023-01-18T15:12:08.341Z,61.83
2023-01-18T15:14:37.887Z,62.01
2023-01-18T15:17:11.478Z,61.77
2023-01-18T15:19:47.329Z,61.60
2023-01-18T15:22:16.771Z,62.04
2023-01-18T15:24:45.760Z,61.94
2023-01-18T15:27:18.177Z,61.74
2023-01-18T15:29:50.811Z,61.89
2023-01-18T15:32:22.345Z,62.37
2023-01-18T15:34:51.883Z,62.09
2023-01-18T15:37:27.087Z,62.40
2023-01-18T15:39:56.603Z,62.38
2023-01-18T15:42:30.241Z,61.93
2023-01-18T15:44:58.611Z,61.98
2023-01-18T15:47:28.733Z,61.52
2023-01-18T15:49:57.834Z,61.78
2023-01-18T15:52:44.922Z,61.79
2023-01-18T15:55:34.288Z,61.65
2023-01-18T15:58:04.242Z,62.66
2023-01-18T16:00:41.708Z,62.56
2023-01-18T16:03:26.461Z,61.83
2023-01-18T16:06:05.170Z,62.43
2023-01-18T16:08:32.449Z,62.16
2023-01-18T16:10:58.810Z,62.78
2023-01-18T16:13:38.529Z,63.02
2023-01-18T16:16:13.883Z,62.81
2023-01-18T16:18:43.359Z,62.80
2023-01-18T16:21:13.738Z,62.83
2023-01-18T16:23:45.062Z,62.98
2023-01-18T16:26:14.212Z,62.73
2023-01-18T16:28:40.690Z,63.18
2023-01-18T16:31:07.112Z,63.06
2023-01-18T16:33:33.532Z,63.52
2023-01-18T16:36:01.367Z,62.93
2023-01-18T16:38:27.709Z,63.31
2023-01-18T16:40:55.219Z,63.01
2023-01-18T16:43:28.533Z,62.96
2023-01-18T16:45:58.812Z,62.91
2023-01-18T16:48:27.176Z,63.35
2023-01-18T16:50:55.951Z,63.98
2023-01-18T16:53:35.224Z,64.29
2023-01-18T16:56:01.645Z,63.23
2023-01-18T16:58:28.689Z,63.68
2023-01-18T17:01:23.695Z,64.59
2023-01-18T17:03:50.943Z,63.72
2023-01-18T17:06:22.957Z,63.83
2023-01-18T17:08:54.054Z,64.50
2023-01-18T17:11:20.394Z,64.93
2023-01-18T17:13:47.623Z,64.99
2023-01-18T17:16:16.979Z,64.68
2023-01-18T17:19:00.411Z,65.24
2023-01-18T17:21:26.752Z,64.92
2023-01-18T17:23:53.119Z,65.25
2023-01-18T17:26:19.446Z,65.74
2023-01-18T17:28:45.882Z,65.15
2023-01-18T17:31:12.977Z,65.58
2023-01-18T17:33:40.414Z,65.21
2023-01-18T17:36:08.571Z,65.54
2023-01-18T17:38:35.069Z,65.49
2023-01-18T17:41:01.420Z,65.41
2023-01-18T17:43:33.873Z,64.96
2023-01-18T17:46:06.430Z,65.27
2023-01-18T17:48:44.624Z,65.45
2023-01-18T17:51:13.082Z,65.46
2023-01-18T17:53:41.010Z,64.62
2023-01-18T17:56:16.902Z,64.34
2023-01-18T17:58:47.993Z,64.33
2023-01-18T18:01:16.865Z,64.84
2023-01-18T18:03:47.634Z,64.96
2023-01-18T18:06:26.202Z,64.99
2023-01-18T18:08:56.822Z,65.00
2023-01-18T18:11:23.893Z,65.22
2023-01-18T18:13:50.226Z,65.21
2023-01-18T18:16:18.821Z,65.07
2023-01-18T18:18:45.729Z,65.31
2023-01-18T18:21:12.118Z,65.52
2023-01-18T18:23:38.486Z,65.67
2023-01-18T18:26:05.031Z,65.55
2023-01-18T18:28:33.126Z,65.38
2023-01-18T18:31:00.183Z,65.33
2023-01-18T18:33:28.331Z,66.01
2023-01-18T18:35:55.125Z,65.55
2023-01-18T18:38:23.006Z,65.88
2023-01-18T18:40:53.914Z,66.23
2023-01-18T18:43:21.052Z,66.14
2023-01-18T18:45:47.716Z,67.14
2023-01-18T18:48:14.449Z,67.05
2023-01-18T18:50:41.159Z,67.35
2023-01-18T18:53:07.992Z,67.85
2023-01-18T18:55:34.398Z,67.36
2023-01-18T18:58:00.776Z,67.54
2023-01-18T19:00:27.331Z,66.64
2023-01-18T19:03:01.165Z,67.55
2023-01-18T19:05:28.670Z,67.87
2023-01-18T19:07:55.586Z,67.55
2023-01-18T19:10:24.105Z,67.76
2023-01-18T19:12:50.457Z,67.45
2023-01-18T19:15:17.023Z,68.36
2023-01-18T19:17:43.372Z,67.98
2023-01-18T19:20:13.418Z,68.27
2023-01-18T19:22:39.915Z,67.56
2023-01-18T19:25:06.862Z,67.17
2023-01-18T19:27:33.193Z,68.22
2023-01-18T19:29:59.561Z,68.04
2023-01-18T19:32:25.959Z,67.60
2023-01-18T19:34:52.269Z,67.39
2023-01-18T19:37:18.621Z,67.82
2023-01-18T19:39:45.938Z,68.08
2023-01-18T19:42:12.289Z,68.17
2023-01-18T19:44:38.628Z,68.62
2023-01-18T19:47:04.972Z,68.63
2023-01-18T19:49:31.507Z,70.21
2023-01-18T19:51:57.868Z,69.79
2023-01-18T19:54:24.581Z,69.07
2023-01-18T19:56:51.359Z,70.33
2023-01-18T19:59:17.710Z,70.91
2023-01-18T20:01:44.673Z,70.00
2023-01-18T20:04:13.025Z,72.05
2023-01-18T20:06:39.649Z,70.89
2023-01-18T20:09:17.656Z,70.99
2023-01-18T20:11:44.915Z,72.07
2023-01-18T20:14:11.786Z,70.91
2023-01-18T20:16:38.885Z,72.58
2023-01-18T20:19:05.331Z,71.02
2023-01-18T20:21:31.747Z,71.53
2023-01-18T20:23:58.068Z,71.54
2023-01-18T20:26:35.780Z,71.75
2023-01-18T20:29:06.564Z,71.72
2023-01-18T20:31:34.436Z,72.30
2023-01-18T20:34:00.806Z,72.00
2023-01-18T20:36:27.815Z,72.15
2023-01-18T20:38:54.180Z,71.93
2023-01-18T20:41:20.777Z,71.80
2023-01-18T20:43:47.238Z,72.13
2023-01-18T20:46:13.743Z,71.89
2023-01-18T20:48:40.116Z,70.50
2023-01-18T20:51:09.992Z,71.74
2023-01-18T20:53:38.041Z,72.96
2023-01-18T20:56:08.326Z,71.28
2023-01-18T20:58:39.235Z,72.21
2023-01-18T21:01:16.632Z,72.29
2023-01-18T21:03:44.252Z,72.72
2023-01-18T21:06:11.221Z,72.02
2023-01-18T21:08:38.062Z,71.71
2023-01-18T21:11:04.999Z,74.16
2023-01-18T21:13:32.452Z,73.14
2023-01-18T21:15:59.690Z,73.06
2023-01-18T21:18:26.982Z,73.32
2023-01-18T21:20:53.810Z,72.13
2023-01-18T21:23:25.746Z,72.25
2023-01-18T21:25:54.429Z,73.78
2023-01-18T21:28:21.056Z,74.28
2023-01-18T21:30:51.776Z,73.42
2023-01-18T21:33:19.100Z,72.72
2023-01-18T21:35:46.187Z,74.64
2023-01-18T21:38:12.656Z,73.45
2023-01-18T21:40:39.562Z,74.46
2023-01-18T21:43:24.350Z,74.35
2023-01-18T21:45:56.510Z,74.44
2023-01-18T21:48:28.760Z,74.77
2023-01-18T21:51:18.392Z,75.97
2023-01-18T21:54:03.684Z,74.71
2023-01-18T21:56:30.124Z,77.13
2023-01-18T21:58:58.109Z,76.07
2023-01-18T22:01:26.728Z,76.18
2023-01-18T22:04:13.315Z,77.55
2023-01-18T22:06:39.984Z,75.91
2023-01-18T22:09:07.785Z,76.50
2023-01-18T22:11:34.208Z,76.32
2023-01-18T22:14:03.693Z,76.72
2023-01-18T22:16:30.955Z,76.32
2023-01-18T22:18:58.259Z,77.12
2023-01-18T22:21:25.384Z,77.08
2023-01-18T22:23:52.668Z,78.21
2023-01-18T22:26:20.382Z,78.32
2023-01-18T22:28:46.839Z,78.77
2023-01-18T22:31:13.947Z,77.94
2023-01-18T22:33:41.235Z,76.96
2023-01-18T22:36:08.208Z,77.68
2023-01-18T22:38:34.753Z,78.08
2023-01-18T22:41:12.857Z,77.38
2023-01-18T22:43:40.472Z,77.46
2023-01-18T22:46:08.119Z,78.26
2023-01-18T22:48:36.431Z,77.79
2023-01-18T22:51:04.532Z,79.22
2023-01-18T22:53:32.238Z,79.82
2023-01-18T22:56:03.404Z,79.88
2023-01-18T22:58:30.611Z,79.13
2023-01-18T23:00:57.252Z,78.19
2023-01-18T23:03:23.696Z,78.39
2023-01-18T23:05:57.215Z,78.61
2023-01-18T23:08:38.209Z,78.36
2023-01-18T23:11:05.252Z,79.29
2023-01-18T23:13:31.563Z,77.85
2023-01-18T23:16:16.783Z,77.37
2023-01-18T23:18:43.310Z,77.06
2023-01-18T23:21:09.606Z,78.38
2023-01-18T23:23:35.936Z,77.26
2023-01-18T23:26:02.304Z,77.56
2023-01-18T23:28:41.025Z,77.56
2023-01-18T23:31:08.532Z,77.62
2023-01-18T23:33:34.907Z,77.00
2023-01-18T23:36:01.265Z,77.04
2023-01-18T23:38:27.621Z,76.89
2023-01-18T23:41:15.840Z,76.44
2023-01-18T23:44:00.424Z,77.35
2023-01-18T23:46:45.206Z,76.45
2023-01-18T23:49:29.852Z,76.00
2023-01-18T23:52:14.738Z,76.61
2023-01-18T23:54:41.081Z,77.59
2023-01-18T23:57:07.405Z,77.34
2023-01-18T23:59:34.634Z,77.95
